< < Back
Terminal Aerodrome Forecast


Current Version              Previous Versions:   1  2  3  4  5  6  7  8  9  

Terminal Aerodrome Forecast

522
FTUS42 KFFC 200500
TAFFTY
TAF
KFTY 200520Z 2006/2106 08006KT P6SM SCT025
     FM200900 08006KT P6SM BKN012
     FM201500 09010KT P6SM BKN030
     FM201800 10010G15KT P6SM SCT060
     FM210000 08003KT P6SM SCT250=

Latest METAR

032
SAUS70 KWBC 200900 RRA
MTRFTY
METAR KFTY 200853Z AUTO 05006KT 10SM CLR 19/17 A3012 RMK AO2 SLP190
T01940167 56007


USA.gov is the U.S. government's official web portal to all federal, state and local government web resources and services.